createdAt,value
2022-08-26T00:54:36.255Z,1.90
2022-08-26T00:57:16.307Z,1.92
2022-08-26T00:59:46.976Z,1.83
2022-08-26T01:02:20.238Z,1.77
2022-08-26T01:04:55.769Z,2.10
2022-08-26T01:07:25.723Z,2.03
2022-08-26T01:09:52.977Z,1.83
2022-08-26T01:12:22.234Z,1.70
2022-08-26T01:14:49.536Z,1.45
2022-08-26T01:17:16.877Z,1.98
2022-08-26T01:19:48.841Z,1.92
2022-08-26T01:22:31.197Z,1.80
2022-08-26T01:25:00.933Z,1.30
2022-08-26T01:27:33.538Z,1.42
2022-08-26T01:30:02.227Z,1.40
2022-08-26T01:32:31.698Z,1.60
2022-08-26T01:34:59.683Z,2.10
2022-08-26T01:37:32.956Z,1.60
2022-08-26T01:40:00.116Z,1.42
2022-08-26T01:42:28.521Z,1.90
2022-08-26T01:45:00.881Z,1.70
2022-08-26T01:47:30.863Z,1.40
2022-08-26T01:50:01.164Z,1.50
2022-08-26T01:52:33.086Z,1.85
2022-08-26T01:55:00.815Z,1.65
2022-08-26T01:57:28.993Z,1.40
2022-08-26T02:00:00.976Z,1.50
2022-08-26T02:02:28.310Z,1.63
2022-08-26T02:05:01.593Z,1.50
2022-08-26T02:07:29.423Z,1.90
2022-08-26T02:09:56.853Z,1.40
2022-08-26T02:12:25.842Z,1.50
2022-08-26T02:14:56.357Z,1.65
2022-08-26T02:17:33.929Z,2.40
2022-08-26T02:20:02.207Z,1.48
2022-08-26T02:22:30.966Z,1.80
2022-08-26T02:25:27.134Z,1.60
2022-08-26T02:27:56.614Z,1.40
2022-08-26T02:30:28.324Z,1.52
2022-08-26T02:32:58.393Z,1.70
2022-08-26T02:35:25.826Z,1.70
2022-08-26T02:37:53.512Z,1.77
2022-08-26T02:40:26.053Z,1.60
2022-08-26T02:42:56.014Z,1.73
2022-08-26T02:45:36.366Z,1.83
2022-08-26T02:48:11.246Z,1.50
2022-08-26T02:50:38.670Z,1.60
2022-08-26T02:53:07.274Z,1.65
2022-08-26T02:55:34.775Z,1.30
2022-08-26T02:58:01.773Z,1.75
2022-08-26T03:00:30.076Z,1.73
2022-08-26T03:02:57.907Z,1.50
2022-08-26T03:05:25.683Z,1.75
2022-08-26T03:07:53.054Z,1.70
2022-08-26T03:10:21.818Z,1.42
2022-08-26T03:12:49.199Z,1.80
2022-08-26T03:15:19.672Z,1.60
2022-08-26T03:17:48.047Z,1.58
2022-08-26T03:20:17.335Z,1.55
2022-08-26T03:22:44.933Z,1.60
2022-08-26T03:25:15.624Z,1.70
2022-08-26T03:27:42.967Z,1.30
2022-08-26T03:30:30.035Z,1.60
2022-08-26T03:32:57.292Z,1.83
2022-08-26T03:35:25.724Z,1.42
2022-08-26T03:37:54.040Z,1.83
2022-08-26T03:40:21.771Z,1.40
2022-08-26T03:42:50.142Z,1.98
2022-08-26T03:45:19.162Z,1.70
2022-08-26T03:47:47.981Z,1.40
2022-08-26T03:50:22.546Z,1.90
2022-08-26T03:52:51.798Z,1.58
2022-08-26T03:55:20.276Z,1.77
2022-08-26T03:57:51.412Z,1.90
2022-08-26T04:00:19.145Z,1.52
2022-08-26T04:02:48.766Z,1.42
2022-08-26T04:05:17.821Z,1.33
2022-08-26T04:07:45.739Z,1.75
2022-08-26T04:10:15.044Z,1.83
2022-08-26T04:12:46.241Z,1.58
2022-08-26T04:15:15.804Z,1.25
2022-08-26T04:17:43.300Z,1.83
2022-08-26T04:20:13.908Z,1.83
2022-08-26T04:22:43.245Z,1.70
2022-08-26T04:25:10.614Z,1.85
2022-08-26T04:27:40.849Z,1.70
2022-08-26T04:30:09.064Z,1.70
2022-08-26T04:32:36.499Z,1.90
2022-08-26T04:35:04.583Z,1.90
2022-08-26T04:37:31.913Z,1.65
2022-08-26T04:39:59.742Z,2.22
2022-08-26T04:42:27.149Z,1.70
2022-08-26T04:44:53.927Z,1.75
2022-08-26T04:47:20.878Z,1.57
2022-08-26T04:49:47.875Z,1.77
2022-08-26T04:52:15.330Z,1.35
2022-08-26T04:54:42.952Z,1.48
2022-08-26T04:57:10.725Z,1.50
2022-08-26T04:59:39.500Z,1.33
2022-08-26T05:02:07.031Z,1.50
2022-08-26T05:04:34.632Z,1.60
2022-08-26T05:07:02.681Z,1.65
2022-08-26T05:09:30.425Z,1.63
2022-08-26T05:11:57.507Z,1.40
2022-08-26T05:14:24.377Z,2.13
2022-08-26T05:16:51.457Z,1.70
2022-08-26T05:19:19.143Z,1.30
2022-08-26T05:21:48.373Z,1.70
2022-08-26T05:24:15.512Z,1.80
2022-08-26T05:26:44.554Z,2.00
2022-08-26T05:29:12.330Z,1.63
2022-08-26T05:31:39.127Z,1.45
2022-08-26T05:34:06.206Z,1.42
2022-08-26T05:36:35.403Z,1.48
2022-08-26T05:39:04.228Z,1.92
2022-08-26T05:41:34.527Z,1.85
2022-08-26T05:44:07.318Z,1.70
2022-08-26T05:46:35.580Z,1.83
2022-08-26T05:49:03.950Z,1.80
2022-08-26T05:51:30.998Z,1.80
2022-08-26T05:53:58.529Z,1.73
2022-08-26T05:56:27.596Z,1.52
2022-08-26T05:58:58.433Z,1.98
2022-08-26T06:01:27.696Z,1.70
2022-08-26T06:03:57.575Z,2.10
2022-08-26T06:06:32.274Z,1.88
2022-08-26T06:09:00.538Z,1.70
2022-08-26T06:11:29.494Z,1.65
2022-08-26T06:14:03.061Z,1.70
2022-08-26T06:16:33.453Z,1.40
2022-08-26T06:19:02.888Z,1.58
2022-08-26T06:21:32.752Z,1.90
2022-08-26T06:24:27.036Z,1.42
2022-08-26T06:26:57.040Z,1.38
2022-08-26T06:29:27.424Z,1.67
2022-08-26T06:31:56.163Z,1.65
2022-08-26T06:34:23.893Z,1.83
2022-08-26T06:36:58.788Z,1.70
2022-08-26T06:39:25.881Z,1.60
2022-08-26T06:41:52.966Z,1.70
2022-08-26T06:44:20.271Z,1.75
2022-08-26T06:46:50.654Z,1.52
2022-08-26T06:49:18.278Z,1.38
2022-08-26T06:51:54.994Z,1.67
2022-08-26T06:54:22.328Z,1.45
2022-08-26T06:56:49.532Z,1.45
2022-08-26T06:59:16.441Z,1.50
2022-08-26T07:01:44.990Z,1.42
2022-08-26T07:04:21.916Z,1.50
2022-08-26T07:06:52.822Z,1.63
2022-08-26T07:09:22.619Z,1.63
2022-08-26T07:11:51.280Z,1.85
2022-08-26T07:14:21.175Z,1.50
2022-08-26T07:16:50.325Z,1.55
2022-08-26T07:19:30.418Z,1.48
2022-08-26T07:21:59.953Z,1.52
2022-08-26T07:24:28.626Z,1.73
2022-08-26T07:27:03.171Z,1.98
2022-08-26T07:29:33.203Z,1.73
2022-08-26T07:32:01.050Z,1.98
2022-08-26T07:34:28.073Z,1.58
2022-08-26T07:36:55.372Z,1.70
2022-08-26T07:39:23.273Z,1.40
2022-08-26T07:41:50.983Z,1.70
2022-08-26T07:44:18.498Z,1.60
2022-08-26T07:46:52.321Z,1.33
2022-08-26T07:49:21.840Z,1.88
2022-08-26T07:51:49.821Z,1.58
2022-08-26T07:54:16.955Z,1.70
2022-08-26T07:56:44.602Z,1.83
2022-08-26T07:59:13.496Z,1.42
2022-08-26T08:01:41.300Z,1.52
2022-08-26T08:04:13.844Z,1.95
2022-08-26T08:06:41.657Z,1.58
2022-08-26T08:09:13.233Z,1.60
2022-08-26T08:11:41.382Z,1.60
2022-08-26T08:14:11.652Z,1.40
2022-08-26T08:16:41.513Z,1.48
2022-08-26T08:19:13.702Z,1.60
2022-08-26T08:21:41.869Z,1.60
2022-08-26T08:24:09.580Z,1.25
2022-08-26T08:26:36.651Z,1.17
2022-08-26T08:29:04.323Z,1.20
2022-08-26T08:31:56.222Z,1.30
2022-08-26T08:34:21.603Z,1.15
2022-08-26T08:36:49.030Z,1.60
2022-08-26T08:39:17.318Z,1.42
2022-08-26T08:42:16.093Z,1.40
2022-08-26T08:44:52.079Z,1.10
2022-08-26T08:47:51.677Z,1.63
2022-08-26T08:50:35.152Z,1.52
2022-08-26T08:53:18.896Z,1.38
2022-08-26T08:56:09.782Z,1.30
2022-08-26T08:58:58.395Z,1.33
2022-08-26T09:01:25.572Z,1.63
2022-08-26T09:04:29.602Z,1.30
2022-08-26T09:07:00.156Z,1.20
2022-08-26T09:09:34.542Z,1.20
2022-08-26T09:12:02.717Z,1.30
2022-08-26T09:14:31.466Z,1.10
2022-08-26T09:17:07.655Z,1.52
2022-08-26T09:19:45.123Z,1.00
2022-08-26T09:22:31.248Z,1.50
2022-08-26T09:24:58.161Z,1.50
2022-08-26T09:27:45.290Z,1.10
2022-08-26T09:30:26.548Z,1.33
2022-08-26T09:33:10.173Z,1.20
2022-08-26T09:35:47.094Z,1.23
2022-08-26T09:38:33.995Z,1.60
2022-08-26T09:41:05.148Z,1.23
2022-08-26T09:43:32.789Z,1.20
2022-08-26T09:46:26.156Z,1.20
2022-08-26T09:48:53.296Z,1.45
2022-08-26T09:51:27.122Z,1.40
2022-08-26T09:53:57.738Z,1.00
2022-08-26T09:56:46.384Z,1.33
2022-08-26T09:59:13.634Z,1.30
2022-08-26T10:01:44.493Z,1.23
2022-08-26T10:04:19.960Z,1.30
2022-08-26T10:07:05.532Z,1.63
2022-08-26T10:09:43.051Z,1.50
2022-08-26T10:12:27.744Z,1.30
2022-08-26T10:15:02.453Z,1.52
2022-08-26T10:17:32.797Z,1.17
2022-08-26T10:20:23.387Z,1.38
2022-08-26T10:23:05.199Z,1.60
2022-08-26T10:25:46.099Z,1.15
2022-08-26T10:28:33.134Z,1.20
2022-08-26T10:31:40.087Z,1.30
2022-08-26T10:34:08.272Z,1.17
2022-08-26T10:39:58.885Z,0.88
2022-08-26T10:42:40.357Z,1.27
2022-08-26T10:45:15.057Z,1.45
2022-08-26T10:47:52.683Z,1.33
2022-08-26T10:50:21.555Z,1.23
2022-08-26T10:52:57.534Z,1.00
2022-08-26T10:55:30.104Z,1.08
2022-08-26T10:58:39.350Z,0.90
2022-08-26T11:01:32.282Z,1.15
2022-08-26T11:04:32.329Z,1.33
2022-08-26T11:07:36.732Z,1.35
2022-08-26T11:10:06.814Z,1.40
2022-08-26T11:12:37.179Z,1.20
2022-08-26T11:15:08.316Z,1.35
2022-08-26T11:17:44.883Z,1.65
2022-08-26T11:20:29.844Z,1.02
2022-08-26T11:23:17.360Z,1.30
2022-08-26T11:25:56.239Z,1.13
2022-08-26T11:28:44.534Z,1.23
2022-08-26T11:31:19.001Z,1.40
2022-08-26T11:33:51.197Z,1.20
2022-08-26T11:36:35.407Z,1.63
2022-08-26T11:39:25.556Z,1.40
2022-08-26T11:41:55.556Z,1.00
2022-08-26T11:44:49.551Z,1.48
2022-08-26T11:47:27.181Z,1.50
2022-08-26T11:50:26.236Z,1.55
2022-08-26T11:53:02.004Z,1.45
2022-08-26T11:55:31.654Z,1.63
2022-08-26T11:58:01.051Z,1.50
2022-08-26T12:00:33.876Z,1.52
2022-08-26T12:03:06.328Z,1.60
2022-08-26T12:05:42.899Z,1.40
2022-08-26T12:08:13.581Z,1.67
2022-08-26T12:10:40.420Z,1.60
2022-08-26T12:13:20.175Z,1.50
2022-08-26T12:15:57.288Z,1.67
2022-08-26T12:18:31.364Z,1.70
2022-08-26T12:21:12.978Z,1.90
2022-08-26T12:23:44.726Z,1.45
2022-08-26T12:26:33.623Z,1.40
2022-08-26T12:29:31.447Z,1.40
2022-08-26T12:32:17.508Z,1.92
2022-08-26T12:34:47.464Z,1.70
2022-08-26T12:37:15.534Z,1.63
2022-08-26T12:39:44.618Z,1.63
2022-08-26T12:42:17.155Z,1.50
2022-08-26T12:45:06.605Z,1.50
2022-08-26T12:47:42.591Z,1.80
2022-08-26T12:50:21.472Z,1.80
2022-08-26T12:53:05.282Z,1.60
2022-08-26T12:55:35.346Z,1.70
2022-08-26T12:58:27.645Z,1.70
2022-08-26T13:00:56.657Z,1.33
2022-08-26T13:03:38.542Z,1.65
2022-08-26T13:06:15.936Z,1.77
2022-08-26T13:08:52.601Z,1.70
2022-08-26T13:11:22.264Z,1.52
2022-08-26T13:13:56.794Z,1.83
2022-08-26T13:16:25.047Z,1.55
2022-08-26T13:18:58.914Z,1.50
2022-08-26T13:21:37.389Z,1.67
2022-08-26T13:24:16.976Z,1.45
2022-08-26T13:26:49.020Z,1.40
2022-08-26T13:29:17.370Z,1.33
2022-08-26T13:31:45.793Z,1.27
2022-08-26T13:34:19.495Z,1.50
2022-08-26T13:36:51.172Z,1.67
2022-08-26T13:39:19.230Z,1.40
2022-08-26T13:41:46.195Z,1.20
2022-08-26T13:44:13.702Z,1.30
2022-08-26T13:46:41.595Z,1.80
2022-08-26T13:49:08.798Z,1.70
2022-08-26T13:51:36.363Z,1.50
2022-08-26T13:54:03.541Z,1.63
2022-08-26T13:56:31.050Z,1.70
2022-08-26T13:58:59.713Z,1.63
2022-08-26T14:01:29.025Z,1.80
2022-08-26T14:03:56.117Z,1.80
2022-08-26T14:06:23.204Z,1.52
2022-08-26T14:08:49.996Z,1.75
2022-08-26T14:11:18.955Z,1.45
2022-08-26T14:13:46.050Z,1.40
2022-08-26T14:16:20.015Z,1.77
2022-08-26T14:18:50.629Z,1.77
2022-08-26T14:21:18.625Z,1.63
2022-08-26T14:23:45.544Z,1.90
2022-08-26T14:26:28.904Z,1.52
2022-08-26T14:29:00.408Z,1.40
2022-08-26T14:31:29.920Z,1.88
2022-08-26T14:34:00.106Z,1.52
2022-08-26T14:36:31.981Z,1.80
2022-08-26T14:39:06.587Z,1.67
2022-08-26T14:41:35.406Z,1.52
2022-08-26T14:44:06.437Z,1.80
2022-08-26T14:46:37.996Z,1.58
2022-08-26T14:49:08.511Z,1.52
2022-08-26T14:51:37.546Z,1.77
2022-08-26T14:54:13.437Z,1.77
2022-08-26T14:56:43.149Z,1.90
2022-08-26T14:59:10.598Z,1.70
2022-08-26T15:01:37.710Z,1.67
2022-08-26T15:04:04.726Z,1.50
2022-08-26T15:06:32.210Z,1.70
2022-08-26T15:08:59.344Z,1.30
2022-08-26T15:11:26.934Z,1.73
2022-08-26T15:13:54.424Z,1.58
2022-08-26T15:16:22.857Z,1.65
2022-08-26T15:18:51.562Z,1.77
2022-08-26T15:21:19.422Z,1.85
2022-08-26T15:23:48.018Z,1.73
2022-08-26T15:26:16.203Z,1.70
2022-08-26T15:28:43.478Z,1.50
2022-08-26T15:31:11.142Z,1.42
2022-08-26T15:33:39.281Z,1.38
2022-08-26T15:36:07.877Z,1.83
2022-08-26T15:38:38.659Z,1.80
2022-08-26T15:41:08.566Z,1.80
2022-08-26T15:43:37.739Z,1.90
2022-08-26T15:46:10.433Z,2.28
2022-08-26T15:48:38.377Z,2.00
2022-08-26T15:51:06.959Z,1.77
2022-08-26T15:53:35.358Z,1.92
2022-08-26T15:56:02.510Z,1.70
2022-08-26T15:58:30.307Z,1.90
2022-08-26T16:00:57.542Z,1.88
2022-08-26T16:03:24.596Z,1.50
2022-08-26T16:05:51.547Z,1.60
2022-08-26T16:08:19.136Z,1.92
2022-08-26T16:10:50.584Z,1.80
2022-08-26T16:13:19.827Z,1.77
2022-08-26T16:15:47.977Z,2.38
2022-08-26T16:18:16.043Z,1.60
2022-08-26T16:21:12.448Z,1.60
2022-08-26T16:23:39.227Z,1.90
2022-08-26T16:26:18.368Z,1.45
2022-08-26T16:28:45.637Z,1.73
2022-08-26T16:31:13.177Z,1.70
2022-08-26T16:33:40.825Z,1.55
2022-08-26T16:36:08.564Z,1.50
2022-08-26T16:38:36.182Z,1.40
2022-08-26T16:41:03.457Z,1.52
2022-08-26T16:43:30.639Z,1.90
2022-08-26T16:45:57.863Z,1.90
2022-08-26T16:48:24.799Z,1.70
2022-08-26T16:50:54.384Z,1.90
2022-08-26T16:53:21.550Z,1.70
2022-08-26T16:55:50.166Z,1.80
2022-08-26T16:58:17.635Z,2.15
2022-08-26T17:00:45.226Z,1.48
2022-08-26T17:03:12.654Z,1.70
2022-08-26T17:05:40.312Z,2.13
2022-08-26T17:08:07.792Z,1.95
2022-08-26T17:10:35.056Z,1.95
2022-08-26T17:13:02.630Z,1.67
2022-08-26T17:15:29.693Z,2.00
2022-08-26T17:17:57.109Z,1.80
2022-08-26T17:20:24.966Z,1.83
2022-08-26T17:22:53.890Z,1.73
2022-08-26T17:25:28.149Z,1.70
2022-08-26T17:30:25.829Z,1.80
2022-08-26T17:32:54.566Z,1.90
2022-08-26T17:35:21.657Z,1.60
2022-08-26T17:37:48.627Z,1.65
2022-08-26T17:40:19.347Z,1.45
2022-08-26T17:42:46.498Z,2.00
2022-08-26T17:45:14.388Z,2.03
2022-08-26T17:47:42.205Z,1.63
2022-08-26T17:50:12.939Z,1.90
2022-08-26T17:52:40.889Z,1.98
2022-08-26T17:55:09.664Z,1.42
2022-08-26T17:57:40.627Z,2.28
2022-08-26T18:00:13.741Z,2.08
2022-08-26T18:02:41.350Z,1.45
2022-08-26T18:05:09.887Z,1.40
2022-08-26T18:07:41.380Z,1.50
2022-08-26T18:10:15.549Z,1.58
2022-08-26T18:12:42.783Z,1.50
2022-08-26T18:15:11.966Z,1.63
2022-08-26T18:17:39.681Z,1.88
2022-08-26T18:20:15.608Z,1.80
2022-08-26T18:22:42.546Z,1.80
2022-08-26T18:25:10.847Z,1.70
2022-08-26T18:27:38.680Z,1.80
2022-08-26T18:30:10.549Z,2.00
2022-08-26T18:32:40.574Z,1.73
2022-08-26T18:35:08.675Z,1.95
2022-08-26T18:37:35.778Z,1.60
2022-08-26T18:40:03.581Z,1.90
2022-08-26T18:42:30.943Z,1.88
2022-08-26T18:44:57.769Z,1.90
2022-08-26T18:47:24.632Z,2.20
2022-08-26T18:49:51.996Z,2.20
2022-08-26T18:52:18.825Z,1.90
2022-08-26T18:54:46.642Z,2.10
2022-08-26T18:57:13.508Z,1.80
2022-08-26T18:59:41.031Z,2.08
2022-08-26T19:02:09.587Z,2.58
2022-08-26T19:04:38.582Z,2.05
2022-08-26T19:07:06.408Z,2.38
2022-08-26T19:09:34.345Z,1.90
2022-08-26T19:12:03.426Z,2.33
2022-08-26T19:14:31.206Z,1.92
2022-08-26T19:16:58.319Z,2.05
2022-08-26T19:19:25.160Z,2.10
2022-08-26T19:21:52.914Z,2.42
2022-08-26T19:24:20.890Z,2.30
2022-08-26T19:26:57.478Z,2.20
2022-08-26T19:29:27.403Z,1.80
2022-08-26T19:31:55.007Z,2.50
2022-08-26T19:34:22.345Z,2.38
2022-08-26T19:36:49.611Z,2.42
2022-08-26T19:39:16.474Z,1.90
2022-08-26T19:41:44.145Z,2.17
2022-08-26T19:44:34.341Z,2.15
2022-08-26T19:47:01.976Z,2.03
2022-08-26T19:49:29.150Z,2.10
2022-08-26T19:51:56.390Z,2.00
2022-08-26T19:54:23.233Z,2.17
2022-08-26T19:56:50.160Z,1.85
2022-08-26T19:59:18.035Z,2.40
2022-08-26T20:01:45.104Z,2.00
2022-08-26T20:04:12.616Z,2.05
2022-08-26T20:06:39.720Z,1.90
2022-08-26T20:09:06.747Z,1.92
2022-08-26T20:11:33.718Z,1.98
2022-08-26T20:14:00.523Z,2.10
2022-08-26T20:16:27.511Z,2.03
2022-08-26T20:19:12.975Z,1.90
2022-08-26T20:21:41.318Z,2.20
2022-08-26T20:24:13.209Z,2.10
2022-08-26T20:26:42.894Z,2.20
2022-08-26T20:29:12.243Z,2.33
2022-08-26T20:31:40.115Z,2.08
2022-08-26T20:34:07.630Z,2.20
2022-08-26T20:36:34.967Z,2.13
2022-08-26T20:39:01.899Z,2.10
2022-08-26T20:41:29.007Z,1.77
2022-08-26T20:43:56.488Z,1.95
2022-08-26T20:46:25.416Z,1.88
2022-08-26T20:48:53.913Z,2.17
2022-08-26T20:51:23.574Z,1.92
2022-08-26T20:53:51.253Z,1.80
2022-08-26T20:56:23.702Z,1.95
2022-08-26T20:58:55.894Z,2.35
2022-08-26T21:01:26.389Z,2.10
2022-08-26T21:03:54.878Z,2.10
2022-08-26T21:06:22.383Z,2.42
2022-08-26T21:08:50.508Z,1.98
2022-08-26T21:11:18.232Z,1.88
2022-08-26T21:14:03.817Z,2.03
2022-08-26T21:16:32.404Z,2.10
2022-08-26T21:19:00.566Z,2.30
2022-08-26T21:21:28.190Z,2.05
2022-08-26T21:23:55.912Z,2.10
2022-08-26T21:26:23.183Z,2.38
2022-08-26T21:28:50.287Z,2.00
2022-08-26T21:31:21.287Z,2.00
2022-08-26T21:33:48.511Z,2.08
2022-08-26T21:36:15.563Z,2.03
2022-08-26T21:38:42.510Z,1.90
2022-08-26T21:41:22.136Z,2.03
2022-08-26T21:43:51.303Z,2.42
2022-08-26T21:46:22.036Z,1.80
2022-08-26T21:48:55.490Z,2.30
2022-08-26T21:51:24.558Z,2.13
2022-08-26T21:53:53.010Z,2.33
2022-08-26T21:56:21.530Z,2.17
2022-08-26T21:58:48.609Z,2.30
2022-08-26T22:01:22.000Z,2.15
2022-08-26T22:03:50.205Z,2.38
2022-08-26T22:06:19.025Z,2.13
2022-08-26T22:08:45.885Z,2.47
2022-08-26T22:11:13.530Z,2.35
2022-08-26T22:13:42.140Z,2.08
2022-08-26T22:16:10.040Z,2.47
2022-08-26T22:18:37.610Z,2.20
2022-08-26T22:21:10.021Z,2.22
2022-08-26T22:23:38.471Z,2.08
2022-08-26T22:26:07.439Z,2.22
2022-08-26T22:28:35.605Z,2.47
2022-08-26T22:31:02.534Z,2.60
2022-08-26T22:33:29.739Z,2.60
2022-08-26T22:35:56.552Z,2.42
2022-08-26T22:38:24.009Z,2.78
2022-08-26T22:40:56.184Z,2.70
2022-08-26T22:43:24.869Z,2.15
2022-08-26T22:45:53.119Z,2.42
2022-08-26T22:48:22.744Z,2.47
2022-08-26T22:50:51.030Z,2.40
2022-08-26T22:53:18.195Z,2.42
2022-08-26T22:55:46.309Z,2.73
2022-08-26T22:58:16.149Z,2.28
2022-08-26T23:00:44.794Z,2.55
2022-08-26T23:03:12.107Z,2.65
2022-08-26T23:05:40.795Z,2.22
2022-08-26T23:08:09.247Z,2.40
2022-08-26T23:10:39.350Z,2.70
2022-08-26T23:13:08.175Z,2.70
2022-08-26T23:15:35.588Z,2.60
2022-08-26T23:18:03.095Z,2.53
2022-08-26T23:20:30.083Z,2.47
2022-08-26T23:22:57.333Z,2.50
2022-08-26T23:25:24.901Z,2.63
2022-08-26T23:27:52.600Z,2.60
2022-08-26T23:30:23.912Z,2.65
2022-08-26T23:32:51.252Z,2.53
2022-08-26T23:35:20.548Z,2.60
2022-08-26T23:37:52.529Z,2.45
2022-08-26T23:40:32.833Z,2.80
2022-08-26T23:43:03.512Z,2.80
2022-08-26T23:45:30.741Z,2.35
2022-08-26T23:47:58.073Z,2.50
2022-08-26T23:50:48.256Z,2.20
2022-08-26T23:53:21.091Z,2.53
2022-08-26T23:55:52.255Z,2.42
2022-08-26T23:58:21.046Z,2.05
